Terminal Aerodrome Forecast
Issued by NWS

Home | Current Version | Previous Version | Text Only | Print | Product List | Glossary On
Versions: 1 2 3 4 5 6 7 8 9 10 11 12 13 14 15 16 17 18 19 20
000
FTUS41 KPBZ 301729
TAFLBE
TAF
KLBE 301729Z 3018/0118 22010G16KT P6SM SCT050
     FM010000 14010KT P6SM SCT250
     FM011200 18011G20KT P6SM BKN150=

USA.gov is the U.S. government's official web portal to all federal, state and local government web resources and services.